createdAt,value
2018-04-27T00:00:08.826Z,3.97
2018-04-27T00:02:36.652Z,2.58
2018-04-27T00:05:04.551Z,2.78
2018-04-27T00:07:32.222Z,2.33
2018-04-27T00:09:59.756Z,3.50
2018-04-27T00:12:27.764Z,3.03
2018-04-27T00:14:55.305Z,2.22
2018-04-27T00:17:22.910Z,2.50
2018-04-27T00:19:50.852Z,3.60
2018-04-27T00:22:18.392Z,3.53
2018-04-27T00:24:45.977Z,2.50
2018-04-27T00:27:13.969Z,3.30
2018-04-27T00:29:41.494Z,2.70
2018-04-27T00:32:09.061Z,3.00
2018-04-27T00:34:36.857Z,2.75
2018-04-27T00:37:05.182Z,2.92
2018-04-27T00:39:32.736Z,2.92
2018-04-27T00:42:00.888Z,3.30
2018-04-27T00:44:28.538Z,3.45
2018-04-27T00:46:56.121Z,3.92
2018-04-27T00:49:24.028Z,3.17
2018-04-27T00:51:52.354Z,3.12
2018-04-27T00:54:19.912Z,3.85
2018-04-27T00:56:47.728Z,3.42
2018-04-27T00:59:15.284Z,3.22
2018-04-27T01:01:42.923Z,3.70
2018-04-27T01:04:10.944Z,3.35
2018-04-27T01:06:38.515Z,2.90
2018-04-27T01:09:06.074Z,4.60
2018-04-27T01:11:33.731Z,3.25
2018-04-27T01:14:01.286Z,4.45
2018-04-27T01:16:28.839Z,3.20
2018-04-27T01:18:57.435Z,3.20
2018-04-27T01:21:24.995Z,4.10
2018-04-27T01:23:52.642Z,3.97
2018-04-27T01:26:20.519Z,3.47
2018-04-27T01:28:48.103Z,3.40
2018-04-27T01:31:15.655Z,3.80
2018-04-27T01:33:43.646Z,4.72
2018-04-27T01:36:11.206Z,4.18
2018-04-27T01:38:38.729Z,3.83
2018-04-27T01:41:06.596Z,3.70
2018-04-27T01:43:34.213Z,4.53
2018-04-27T01:46:01.859Z,4.10
2018-04-27T01:48:29.472Z,4.60
2018-04-27T01:50:57.017Z,4.18
2018-04-27T01:53:24.567Z,4.65
2018-04-27T01:55:53.327Z,3.97
2018-04-27T01:58:20.853Z,4.03
2018-04-27T02:00:48.409Z,4.57
2018-04-27T02:03:16.308Z,4.85
2018-04-27T02:05:43.872Z,4.55
2018-04-27T02:08:11.456Z,4.12
2018-04-27T02:10:40.092Z,5.43
2018-04-27T02:13:07.620Z,5.10
2018-04-27T02:15:35.857Z,3.78
2018-04-27T02:18:03.647Z,3.83
2018-04-27T02:20:31.122Z,4.43
2018-04-27T02:22:59.342Z,4.87
2018-04-27T02:25:27.168Z,5.22
2018-04-27T02:27:54.685Z,4.95
2018-04-27T02:30:22.152Z,4.40
2018-04-27T02:32:50.091Z,4.32
2018-04-27T02:35:17.562Z,5.10
2018-04-27T02:37:45.062Z,4.85
2018-04-27T02:40:12.901Z,5.03
2018-04-27T02:42:40.378Z,4.80
2018-04-27T02:45:08.643Z,4.78
2018-04-27T02:47:36.934Z,5.12
2018-04-27T02:50:04.440Z,5.10
2018-04-27T02:52:31.959Z,5.40
2018-04-27T02:54:59.798Z,5.07
2018-04-27T02:57:27.290Z,4.82
2018-04-27T02:59:54.811Z,6.25
2018-04-27T03:02:22.693Z,5.72
2018-04-27T03:04:50.932Z,5.30
2018-04-27T03:07:18.482Z,5.60
2018-04-27T03:09:46.278Z,5.45
2018-04-27T03:12:13.795Z,5.70
2018-04-27T03:14:41.282Z,6.30
2018-04-27T03:17:09.033Z,5.35
2018-04-27T03:19:36.637Z,7.15
2018-04-27T03:22:04.858Z,6.35
2018-04-27T03:24:32.650Z,6.53
2018-04-27T03:27:00.135Z,7.22
2018-04-27T03:29:28.460Z,6.43
2018-04-27T03:31:56.247Z,8.00
2018-04-27T03:34:23.741Z,6.80
2018-04-27T03:36:51.206Z,6.18
2018-04-27T03:39:19.043Z,7.12
2018-04-27T03:41:47.285Z,7.12
2018-04-27T03:44:14.743Z,8.27
2018-04-27T03:46:42.530Z,7.70
2018-04-27T03:49:10.042Z,7.50
2018-04-27T03:51:37.510Z,7.00
2018-04-27T03:54:05.330Z,7.22
2018-04-27T03:56:32.820Z,7.20
2018-04-27T03:59:00.316Z,7.70
2018-04-27T04:01:40.058Z,7.70
2018-04-27T04:04:19.416Z,8.55
2018-04-27T04:06:47.989Z,8.77
2018-04-27T04:09:15.474Z,8.90
2018-04-27T04:11:42.966Z,8.43
2018-04-27T04:14:10.778Z,9.10
2018-04-27T04:16:39.002Z,9.00
2018-04-27T04:19:07.877Z,8.02
2018-04-27T04:21:37.303Z,8.65
2018-04-27T04:24:04.778Z,8.15
2018-04-27T04:26:32.242Z,8.45
2018-04-27T04:29:00.098Z,8.35
2018-04-27T04:31:27.569Z,8.50
2018-04-27T04:33:55.101Z,9.45
2018-04-27T04:36:23.001Z,7.30
2018-04-27T04:38:50.491Z,8.20
2018-04-27T04:41:17.977Z,8.45
2018-04-27T04:43:45.811Z,8.60
2018-04-27T04:46:13.301Z,7.87
2018-04-27T04:48:40.786Z,7.80
2018-04-27T04:51:08.664Z,7.43
2018-04-27T04:53:36.258Z,7.35
2018-04-27T04:56:03.734Z,6.78
2018-04-27T04:58:31.558Z,6.90
2018-04-27T05:00:59.014Z,6.85
2018-04-27T05:03:26.482Z,6.28
2018-04-27T05:05:54.248Z,7.20
2018-04-27T05:08:21.861Z,6.15
2018-04-27T05:10:49.306Z,6.90
2018-04-27T05:13:17.048Z,6.03
2018-04-27T05:15:44.531Z,5.25
2018-04-27T05:31:57.440Z,5.72
2018-04-27T05:34:24.920Z,5.87
2018-04-27T05:36:53.793Z,5.78
2018-04-27T05:39:21.627Z,5.15
2018-04-27T05:41:49.102Z,5.35
2018-04-27T05:44:16.580Z,5.28
2018-04-27T05:46:44.346Z,5.00
2018-04-27T05:49:12.663Z,6.50
2018-04-27T05:51:40.157Z,6.12
2018-04-27T05:54:07.955Z,6.70
2018-04-27T05:56:36.194Z,6.05
2018-04-27T05:59:03.689Z,7.20
2018-04-27T06:01:32.359Z,6.03
2018-04-27T06:04:11.903Z,7.37
2018-04-27T06:06:39.378Z,7.00
2018-04-27T06:09:06.864Z,7.50
2018-04-27T06:11:34.374Z,8.00
2018-04-27T06:14:02.435Z,7.25
2018-04-27T06:16:29.928Z,7.12
2018-04-27T06:18:57.545Z,6.50
2018-04-27T06:21:25.504Z,7.60
2018-04-27T06:23:52.980Z,7.75
2018-04-27T06:26:20.486Z,7.03
2018-04-27T06:28:50.161Z,6.57
2018-04-27T06:31:18.429Z,6.20
2018-04-27T06:33:46.697Z,5.82
2018-04-27T06:36:14.176Z,6.05
2018-04-27T06:38:41.755Z,6.32
2018-04-27T06:41:09.227Z,6.20
2018-04-27T06:43:36.715Z,5.85
2018-04-27T06:46:04.198Z,5.35
2018-04-27T06:48:31.687Z,5.40
2018-04-27T06:50:59.437Z,5.03
2018-04-27T06:53:26.956Z,5.12
2018-04-27T06:55:54.431Z,5.05
2018-04-27T06:58:22.197Z,5.32
2018-04-27T07:00:49.674Z,5.85
2018-04-27T07:03:17.192Z,4.90
2018-04-27T07:05:44.684Z,4.75
2018-04-27T07:08:13.137Z,4.55
2018-04-27T07:10:41.530Z,4.75
2018-04-27T07:13:10.046Z,5.00
2018-04-27T07:15:37.582Z,6.35
2018-04-27T07:18:05.888Z,5.00
2018-04-27T07:20:33.387Z,4.20
2018-04-27T07:23:00.946Z,5.30
2018-04-27T07:25:28.510Z,5.30
2018-04-27T07:27:56.008Z,6.00
2018-04-27T07:30:23.472Z,5.22
2018-04-27T07:32:51.014Z,5.65
2018-04-27T07:35:18.748Z,5.55
2018-04-27T07:37:46.239Z,4.82
2018-04-27T07:40:13.708Z,4.82
2018-04-27T07:42:41.446Z,5.90
2018-04-27T07:45:08.963Z,6.00
2018-04-27T07:47:36.450Z,6.60
2018-04-27T07:50:04.259Z,5.80
2018-04-27T07:52:31.762Z,6.30
2018-04-27T07:54:59.247Z,5.25
2018-04-27T07:57:26.747Z,6.20
2018-04-27T07:59:54.228Z,6.03
2018-04-27T08:02:21.800Z,5.50
2018-04-27T08:04:49.219Z,6.22
2018-04-27T08:07:16.770Z,6.30
2018-04-27T08:09:44.181Z,7.05
2018-04-27T08:12:11.989Z,6.60
2018-04-27T08:14:39.468Z,6.47
2018-04-27T08:17:06.948Z,6.35
2018-04-27T08:19:35.554Z,6.90
2018-04-27T08:22:03.062Z,6.37
2018-04-27T08:24:30.645Z,5.68
2018-04-27T08:26:58.101Z,6.75
2018-04-27T08:29:25.651Z,5.57
2018-04-27T08:31:53.934Z,5.45
2018-04-27T08:34:21.427Z,5.93
2018-04-27T08:36:48.926Z,6.65
2018-04-27T08:39:17.215Z,5.70
2018-04-27T08:41:45.056Z,6.70
2018-04-27T08:44:12.534Z,7.05
2018-04-27T08:46:40.035Z,6.28
2018-04-27T08:49:07.570Z,6.12
2018-04-27T08:51:35.055Z,7.25
2018-04-27T08:54:02.547Z,6.80
2018-04-27T08:56:30.167Z,7.03
2018-04-27T08:58:57.651Z,6.40
2018-04-27T09:01:25.182Z,5.85
2018-04-27T09:03:53.457Z,6.43
2018-04-27T09:06:20.992Z,6.53
2018-04-27T09:08:48.495Z,5.65
2018-04-27T09:11:16.015Z,5.50
2018-04-27T09:13:43.530Z,6.53
2018-04-27T09:16:11.049Z,6.00
2018-04-27T09:18:39.302Z,6.05
2018-04-27T09:21:07.546Z,4.93
2018-04-27T09:23:36.345Z,5.62
2018-04-27T09:26:03.854Z,5.20
2018-04-27T09:28:31.353Z,4.65
2018-04-27T09:30:59.107Z,3.85
2018-04-27T09:33:27.216Z,3.95
2018-04-27T09:35:55.513Z,4.80
2018-04-27T09:38:22.995Z,3.70
2018-04-27T09:40:50.502Z,4.80
2018-04-27T09:43:17.985Z,4.55
2018-04-27T09:45:46.227Z,4.07
2018-04-27T09:48:14.439Z,5.25
2018-04-27T09:50:42.062Z,3.62
2018-04-27T09:53:09.478Z,3.87
2018-04-27T09:55:36.966Z,4.15
2018-04-27T09:58:04.519Z,3.45
2018-04-27T10:00:32.024Z,3.62
2018-04-27T10:03:00.610Z,4.65
2018-04-27T10:05:28.119Z,4.20
2018-04-27T10:07:55.653Z,3.72
2018-04-27T10:10:23.147Z,3.30
2018-04-27T10:12:51.242Z,3.40
2018-04-27T10:15:18.730Z,3.17
2018-04-27T10:17:46.218Z,3.75
2018-04-27T10:20:13.699Z,3.85
2018-04-27T10:22:41.192Z,3.58
2018-04-27T10:25:08.704Z,3.85
2018-04-27T10:27:36.315Z,3.95
2018-04-27T10:30:03.903Z,4.50
2018-04-27T10:32:31.426Z,4.10
2018-04-27T10:34:59.013Z,3.50
2018-04-27T10:37:26.499Z,3.47
2018-04-27T10:39:54.034Z,3.47
2018-04-27T10:42:21.525Z,3.92
2018-04-27T10:44:49.035Z,2.17
2018-04-27T10:47:16.522Z,2.55
2018-04-27T10:49:43.998Z,1.87
2018-04-27T10:52:12.235Z,1.73
2018-04-27T10:54:40.113Z,2.20
2018-04-27T10:57:07.603Z,1.80
2018-04-27T10:59:35.082Z,1.80
2018-04-27T11:02:02.918Z,1.53
2018-04-27T11:04:30.402Z,2.00
2018-04-27T11:06:57.873Z,1.80
2018-04-27T11:09:25.678Z,2.23
2018-04-27T11:11:53.166Z,2.60
2018-04-27T11:14:20.747Z,2.53
2018-04-27T11:16:48.324Z,2.90
2018-04-27T11:19:15.762Z,2.63
2018-04-27T11:21:43.274Z,2.33
2018-04-27T11:24:10.883Z,3.40
2018-04-27T11:26:38.405Z,2.27
2018-04-27T11:29:06.665Z,2.53
2018-04-27T11:31:34.206Z,2.80
2018-04-27T11:34:01.699Z,2.90
2018-04-27T11:36:29.229Z,2.60
2018-04-27T11:38:57.510Z,2.90
2018-04-27T11:41:24.995Z,3.20
2018-04-27T11:43:53.263Z,2.50
2018-04-27T11:46:21.841Z,2.67
2018-04-27T11:48:50.107Z,3.10
2018-04-27T11:51:17.665Z,3.30
2018-04-27T11:53:45.212Z,3.10
2018-04-27T11:56:12.707Z,3.43
2018-04-27T11:58:40.962Z,3.60
2018-04-27T12:01:08.766Z,3.30
2018-04-27T12:03:36.266Z,3.50
2018-04-27T12:06:03.736Z,3.33
2018-04-27T12:08:31.228Z,3.62
2018-04-27T12:10:59.457Z,3.67
2018-04-27T12:13:26.996Z,4.03
2018-04-27T12:15:55.271Z,4.35
2018-04-27T12:18:22.774Z,3.83
2018-04-27T12:20:50.253Z,3.40
2018-04-27T12:23:17.742Z,3.70
2018-04-27T12:25:45.257Z,3.90
2018-04-27T12:28:12.810Z,4.32
2018-04-27T12:30:40.294Z,3.92
2018-04-27T12:33:07.817Z,3.62
2018-04-27T12:35:35.298Z,3.70
2018-04-27T12:38:02.819Z,4.40
2018-04-27T12:40:30.302Z,4.85
2018-04-27T12:42:57.858Z,5.78
2018-04-27T12:45:25.373Z,5.20
2018-04-27T12:47:52.865Z,4.20
2018-04-27T12:50:20.822Z,4.50
2018-04-27T12:52:49.092Z,4.72
2018-04-27T12:55:16.579Z,5.15
2018-04-27T12:57:44.827Z,5.07
2018-04-27T13:00:12.314Z,4.70
2018-04-27T13:02:40.562Z,4.95
2018-04-27T13:05:08.196Z,4.25
2018-04-27T13:07:35.730Z,4.67
2018-04-27T13:10:03.211Z,3.80
2018-04-27T13:12:30.699Z,5.23
2018-04-27T13:14:58.183Z,4.20
2018-04-27T13:17:25.663Z,4.47
2018-04-27T13:19:53.195Z,3.92
2018-04-27T13:22:21.443Z,4.60
2018-04-27T13:24:48.946Z,4.33
2018-04-27T13:27:16.447Z,2.37
2018-04-27T13:29:43.946Z,1.80
2018-04-27T13:32:12.179Z,2.30
2018-04-27T13:34:39.656Z,2.70
2018-04-27T13:37:07.188Z,2.83
2018-04-27T13:39:34.726Z,2.17
2018-04-27T13:42:02.234Z,2.50
2018-04-27T13:44:29.726Z,1.60
2018-04-27T13:46:57.198Z,2.07
2018-04-27T13:49:24.693Z,2.40
2018-04-27T13:51:53.004Z,2.07
2018-04-27T13:54:20.468Z,1.97
2018-04-27T13:56:47.968Z,2.50
2018-04-27T13:59:15.457Z,3.17
2018-04-27T14:01:43.834Z,1.90
2018-04-27T14:04:11.299Z,1.90
2018-04-27T14:06:38.772Z,1.80
2018-04-27T14:09:06.354Z,2.53
2018-04-27T14:11:33.851Z,2.00
2018-04-27T14:14:01.741Z,2.20
2018-04-27T14:16:29.142Z,2.00
2018-04-27T14:18:56.618Z,1.87
2018-04-27T14:21:24.455Z,1.70
2018-04-27T14:23:51.943Z,2.30
2018-04-27T14:26:19.506Z,2.07
2018-04-27T14:28:46.985Z,2.20
2018-04-27T14:31:14.454Z,2.40
2018-04-27T14:33:42.740Z,2.20
2018-04-27T14:36:10.986Z,2.00
2018-04-27T14:38:39.261Z,2.37
2018-04-27T14:41:07.528Z,2.03
2018-04-27T14:43:35.035Z,2.10
2018-04-27T14:46:02.522Z,2.27
2018-04-27T14:48:29.995Z,2.07
2018-04-27T14:50:57.478Z,2.23
2018-04-27T14:53:25.718Z,2.20
2018-04-27T14:55:53.206Z,2.13
2018-04-27T14:58:20.744Z,2.40
2018-04-27T15:00:48.223Z,2.30
2018-04-27T15:03:16.475Z,2.27
2018-04-27T15:05:44.053Z,2.40
2018-04-27T15:08:12.355Z,2.47
2018-04-27T15:10:39.854Z,2.20
2018-04-27T15:13:07.373Z,1.97
2018-04-27T15:15:34.859Z,2.23
2018-04-27T15:18:02.326Z,1.90
2018-04-27T15:20:29.815Z,2.53
2018-04-27T15:22:57.293Z,1.63
2018-04-27T15:25:24.794Z,1.77
2018-04-27T15:27:52.300Z,2.80
2018-04-27T15:30:19.799Z,2.50
2018-04-27T15:32:47.282Z,2.40
2018-04-27T15:35:14.785Z,2.20
2018-04-27T15:37:42.267Z,2.30
2018-04-27T15:40:09.780Z,2.70
2018-04-27T15:42:38.060Z,2.60
2018-04-27T15:45:06.303Z,2.20
2018-04-27T15:47:33.864Z,2.07
2018-04-27T15:50:01.369Z,2.40
2018-04-27T15:52:28.877Z,2.73
2018-04-27T15:54:56.370Z,2.73
2018-04-27T15:57:24.302Z,2.50
2018-04-27T15:59:51.742Z,3.00
2018-04-27T16:02:19.207Z,2.80
2018-04-27T16:04:46.731Z,2.67
2018-04-27T16:07:14.307Z,2.50
2018-04-27T16:09:41.862Z,2.00
2018-04-27T16:12:09.475Z,2.50
2018-04-27T16:14:36.978Z,2.00
2018-04-27T16:17:04.454Z,2.40
2018-04-27T16:19:32.056Z,1.90
2018-04-27T16:22:00.318Z,1.97
2018-04-27T16:24:27.821Z,1.70
2018-04-27T16:26:55.399Z,2.00
2018-04-27T16:29:22.914Z,1.92
2018-04-27T16:31:50.428Z,2.27
2018-04-27T16:34:17.937Z,3.00
2018-04-27T16:36:45.487Z,2.40
2018-04-27T16:39:12.985Z,2.80
2018-04-27T16:41:40.487Z,2.20
2018-04-27T16:44:08.959Z,2.50
2018-04-27T16:46:36.723Z,2.25
2018-04-27T16:49:04.245Z,2.47
2018-04-27T16:51:31.746Z,2.70
2018-04-27T16:53:59.230Z,2.90
2018-04-27T16:56:26.743Z,2.60
2018-04-27T16:58:54.265Z,2.60
2018-04-27T17:01:21.786Z,2.45
2018-04-27T17:03:49.342Z,2.60
2018-04-27T17:06:17.582Z,2.85
2018-04-27T17:08:45.111Z,2.40
2018-04-27T17:11:12.620Z,3.10
2018-04-27T17:13:40.887Z,2.62
2018-04-27T17:16:08.367Z,2.80
2018-04-27T17:18:35.851Z,2.55
2018-04-27T17:21:03.338Z,2.62
2018-04-27T17:23:30.891Z,2.20
2018-04-27T17:25:58.467Z,2.15
2018-04-27T17:28:25.976Z,2.28
2018-04-27T17:30:53.503Z,1.75
2018-04-27T17:33:21.012Z,2.20
2018-04-27T17:35:48.503Z,2.20
2018-04-27T17:38:16.012Z,2.67
2018-04-27T17:40:43.502Z,2.30
2018-04-27T17:43:11.017Z,2.22
2018-04-27T17:45:38.563Z,2.65
2018-04-27T17:48:06.041Z,2.80
2018-04-27T17:50:34.307Z,2.72
2018-04-27T17:53:01.812Z,2.75
2018-04-27T17:55:29.297Z,2.67
2018-04-27T17:57:56.823Z,2.70
2018-04-27T18:00:24.296Z,2.62
2018-04-27T18:02:52.676Z,2.72
2018-04-27T18:05:20.174Z,2.70
2018-04-27T18:07:47.686Z,3.00
2018-04-27T18:10:15.443Z,2.95
2018-04-27T18:12:42.934Z,3.00
2018-04-27T18:15:11.242Z,2.97
2018-04-27T18:17:38.759Z,3.22
2018-04-27T18:20:06.251Z,3.62
2018-04-27T18:22:33.762Z,3.53
2018-04-27T18:25:01.357Z,3.90
2018-04-27T18:27:29.596Z,3.40
2018-04-27T18:29:57.094Z,3.20
2018-04-27T18:32:24.897Z,3.25
2018-04-27T18:34:52.406Z,3.67
2018-04-27T18:37:20.706Z,3.87
2018-04-27T18:39:48.196Z,3.33
2018-04-27T18:42:15.717Z,3.95
2018-04-27T18:44:43.202Z,3.60
2018-04-27T18:47:10.718Z,4.00
2018-04-27T18:49:38.290Z,3.95
2018-04-27T18:52:05.821Z,5.30
2018-04-27T18:54:33.594Z,4.00
2018-04-27T18:57:01.851Z,3.60
2018-04-27T18:59:29.333Z,3.45
2018-04-27T19:01:57.887Z,3.87
2018-04-27T19:04:25.375Z,3.47
2018-04-27T19:06:52.950Z,3.37
2018-04-27T19:09:20.450Z,3.33
2018-04-27T19:11:47.936Z,3.08
2018-04-27T19:14:15.496Z,3.12
2018-04-27T19:16:43.819Z,3.00
2018-04-27T19:19:11.288Z,3.20
2018-04-27T19:21:38.809Z,3.53
2018-04-27T19:24:06.453Z,3.70
2018-04-27T19:26:33.951Z,3.75
2018-04-27T19:29:01.466Z,3.10
2018-04-27T19:31:29.027Z,3.28
2018-04-27T19:33:57.278Z,4.03
2018-04-27T19:36:24.747Z,3.55
2018-04-27T19:38:53.023Z,3.37
2018-04-27T19:41:20.493Z,3.45
2018-04-27T19:43:48.765Z,3.62
2018-04-27T19:46:17.058Z,3.72
2018-04-27T19:48:44.547Z,4.32
2018-04-27T19:51:12.069Z,4.15
2018-04-27T19:53:40.558Z,3.90
2018-04-27T19:56:08.067Z,3.78
2018-04-27T19:58:35.556Z,4.00
2018-04-27T20:01:04.094Z,4.65
2018-04-27T20:03:31.732Z,4.00
2018-04-27T20:05:59.260Z,4.72
2018-04-27T20:08:27.696Z,4.60
2018-04-27T20:10:55.983Z,5.75
2018-04-27T20:13:23.472Z,5.28
2018-04-27T20:15:55.983Z,4.87
2018-04-27T20:18:28.999Z,5.05
2018-04-27T20:20:59.341Z,5.03
2018-04-27T20:23:45.344Z,5.18
2018-04-27T20:26:13.234Z,5.53
2018-04-27T20:28:40.726Z,5.25
2018-04-27T20:31:08.223Z,5.30
2018-04-27T20:33:36.124Z,5.35
2018-04-27T20:36:03.518Z,5.18
2018-04-27T20:38:31.806Z,4.82
2018-04-27T20:41:15.165Z,5.50
2018-04-27T20:43:43.322Z,5.12
2018-04-27T20:46:10.816Z,5.28
2018-04-27T20:48:38.290Z,6.50
2018-04-27T20:51:08.381Z,5.82
2018-04-27T20:53:42.534Z,5.87
2018-04-27T20:56:10.193Z,5.62
2018-04-27T20:58:37.872Z,5.22
2018-04-27T21:01:05.725Z,5.47
2018-04-27T21:03:33.222Z,6.05
2018-04-27T21:06:01.462Z,5.35
2018-04-27T21:08:29.225Z,5.45
2018-04-27T21:10:56.710Z,6.30
2018-04-27T21:13:24.953Z,6.22
2018-04-27T21:15:52.442Z,6.78
2018-04-27T21:18:20.700Z,5.53
2018-04-27T21:20:48.189Z,6.65
2018-04-27T21:23:15.709Z,7.22
2018-04-27T21:25:44.789Z,7.18
2018-04-27T21:28:31.079Z,6.37
2018-04-27T21:30:58.558Z,6.60
2018-04-27T21:33:30.421Z,7.97
2018-04-27T21:35:58.163Z,7.25
2018-04-27T21:38:31.483Z,6.22
2018-04-27T21:40:59.753Z,7.20
2018-04-27T21:43:27.313Z,7.07
2018-04-27T21:45:54.797Z,7.62
2018-04-27T21:48:25.072Z,6.87
2018-04-27T21:50:52.550Z,7.82
2018-04-27T21:53:20.028Z,7.70
2018-04-27T21:55:47.509Z,7.68
2018-04-27T21:58:29.849Z,6.97
2018-04-27T22:00:57.645Z,7.47
2018-04-27T22:03:25.195Z,7.97
2018-04-27T22:06:03.739Z,7.47
2018-04-27T22:08:38.683Z,8.50
2018-04-27T22:11:07.909Z,7.90
2018-04-27T22:13:35.385Z,8.82
2018-04-27T22:16:02.980Z,9.48
2018-04-27T22:18:31.308Z,8.38
2018-04-27T22:20:58.777Z,8.27
2018-04-27T22:23:27.039Z,8.85
2018-04-27T22:25:54.856Z,9.23
2018-04-27T22:28:35.917Z,9.65
2018-04-27T22:31:03.655Z,8.50
2018-04-27T22:33:39.585Z,9.75
2018-04-27T22:36:21.702Z,9.38
2018-04-27T22:38:55.727Z,8.85
2018-04-27T22:41:23.529Z,8.60
2018-04-27T22:43:52.546Z,8.50
2018-04-27T22:46:20.034Z,9.05
2018-04-27T22:48:53.643Z,8.02
2018-04-27T22:51:34.592Z,9.23
2018-04-27T22:54:04.949Z,8.93
2018-04-27T23:10:00.134Z,8.27
2018-04-27T23:12:30.178Z,7.75
2018-04-27T23:14:58.415Z,8.50
2018-04-27T23:17:26.294Z,7.72
2018-04-27T23:19:55.426Z,8.40
2018-04-27T23:22:34.866Z,8.30
2018-04-27T23:25:05.638Z,8.25
2018-04-27T23:27:33.813Z,8.32
2018-04-27T23:30:01.279Z,8.25
2018-04-27T23:32:28.754Z,9.60
2018-04-27T23:34:56.256Z,8.25
2018-04-27T23:37:23.752Z,8.57
2018-04-27T23:39:51.225Z,8.20
2018-04-27T23:42:19.520Z,9.10
2018-04-27T23:44:47.047Z,9.32
2018-04-27T23:47:14.540Z,8.43
2018-04-27T23:49:42.522Z,9.02
2018-04-27T23:52:09.987Z,9.02
2018-04-27T23:54:37.471Z,7.95
2018-04-27T23:57:05.398Z,8.45
2018-04-27T23:59:35.709Z,8.57
